Time;durP1;ratioP1;P1;durP2;ratioP2;P2;SDS_P1;SDS_P2;PMS_P1;PMS_P2;Temp;Humidity;BMP_temperature;BMP_pressure;BME280_temperature;BME280_humidity;BME280_pressure;Samples;Min_cycle;Max_cycle;Signal;HPM_P1;HPM_P2
2023/05/19 00:01:06;;;;;;;1999.90;999.90;;;9.90;77.50;;;;;;5036846;28;20490;-89
2023/05/19 00:03:33;;;;;;;1999.90;999.90;;;9.80;77.70;;;;;;5036603;28;20136;-90
2023/05/19 00:06:01;;;;;;;1999.90;999.90;;;9.70;78.20;;;;;;5036196;28;20456;-90
2023/05/19 00:08:31;;;;;;;1999.90;999.90;;;9.80;78.00;;;;;;5040405;28;20517;-89
2023/05/19 00:10:57;;;;;;;1999.90;999.90;;;9.80;78.50;;;;;;5034786;28;20468;-89
2023/05/19 00:13:23;;;;;;;1999.90;999.90;;;9.80;78.40;;;;;;5040252;28;20029;-90
2023/05/19 00:15:49;;;;;;;1999.90;999.90;;;9.70;78.90;;;;;;5028452;28;20033;-88
2023/05/19 00:18:16;;;;;;;1999.90;999.90;;;9.70;78.40;;;;;;5019829;28;20033;-89
2023/05/19 00:20:42;;;;;;;1999.90;999.90;;;9.60;78.00;;;;;;5040177;28;20047;-90
2023/05/19 00:23:09;;;;;;;1999.90;999.90;;;9.60;78.20;;;;;;5033882;28;20045;-89
2023/05/19 00:25:35;;;;;;;1999.90;999.90;;;9.50;78.10;;;;;;5038394;28;20184;-88
2023/05/19 00:28:01;;;;;;;1999.90;999.90;;;9.60;77.50;;;;;;5038235;28;20087;-86
2023/05/19 00:30:28;;;;;;;1999.90;999.90;;;9.50;77.90;;;;;;5035800;28;20037;-89
2023/05/19 00:32:54;;;;;;;1999.90;999.90;;;9.50;77.80;;;;;;5037412;28;20479;-89
2023/05/19 00:35:20;;;;;;;1999.90;999.90;;;9.50;78.40;;;;;;5033008;28;20088;-89
2023/05/19 00:37:46;;;;;;;1999.90;999.90;;;9.40;78.50;;;;;;5035338;28;20048;-87
2023/05/19 00:40:12;;;;;;;1999.90;999.90;;;9.40;78.90;;;;;;5037797;28;20057;-91
2023/05/19 00:42:38;;;;;;;1999.90;999.90;;;9.40;78.90;;;;;;5033846;28;20536;-90
2023/05/19 00:45:04;;;;;;;1999.90;999.90;;;9.40;78.50;;;;;;5021269;28;20461;-91
2023/05/19 00:47:30;;;;;;;1999.90;999.90;;;9.30;79.20;;;;;;5035749;28;20029;-88
2023/05/19 00:49:55;;;;;;;1999.90;999.90;;;9.20;78.90;;;;;;5019267;28;20036;-89
2023/05/19 00:52:21;;;;;;;1999.90;999.90;;;9.10;79.60;;;;;;5036420;28;20556;-90
2023/05/19 00:54:48;;;;;;;1999.90;999.90;;;9.00;80.30;;;;;;5034327;28;20033;-89
2023/05/19 00:57:14;;;;;;;1999.90;999.90;;;8.90;80.30;;;;;;5036116;28;20104;-87
2023/05/19 00:59:40;;;;;;;1999.90;999.90;;;8.90;80.20;;;;;;5038812;28;20101;-88
2023/05/19 01:02:06;;;;;;;1999.90;999.90;;;8.90;80.80;;;;;;5030372;28;20067;-89
2023/05/19 01:04:35;;;;;;;1999.90;999.90;;;8.80;80.40;;;;;;5041144;28;20398;-90
2023/05/19 01:07:00;;;;;;;1999.90;999.90;;;8.80;80.00;;;;;;5016886;28;20063;-90
2023/05/19 01:09:26;;;;;;;1999.90;999.90;;;8.80;79.90;;;;;;5038678;28;20060;-88
2023/05/19 01:11:52;;;;;;;1999.90;999.90;;;8.80;80.30;;;;;;5021857;28;20090;-89
2023/05/19 01:14:18;;;;;;;1999.90;999.90;;;8.70;80.50;;;;;;5037528;28;20040;-88
2023/05/19 01:17:07;;;;;;;1999.90;999.90;;;8.70;80.60;;;;;;5037634;28;20043;-90
2023/05/19 01:19:55;;;;;;;1999.90;999.90;;;8.50;81.50;;;;;;5033859;28;20104;-88
2023/05/19 01:22:37;;;;;;;1999.90;999.90;;;8.40;81.40;;;;;;5036663;28;20037;-89
2023/05/19 01:25:10;;;;;;;1999.90;999.90;;;8.40;81.90;;;;;;5035798;28;20026;-89
2023/05/19 01:27:53;;;;;;;1999.90;999.90;;;8.40;82.50;;;;;;5033194;28;20050;-89
2023/05/19 01:30:40;;;;;;;1999.90;999.90;;;8.30;82.40;;;;;;5036206;28;20030;-90
2023/05/19 01:33:08;;;;;;;1999.90;999.90;;;8.40;82.30;;;;;;5024963;28;20036;-89
2023/05/19 01:35:36;;;;;;;1999.90;999.90;;;8.40;82.40;;;;;;5029651;28;20037;-90
2023/05/19 01:38:05;;;;;;;1999.90;999.90;;;8.30;82.30;;;;;;5023783;28;20376;-91
2023/05/19 01:40:31;;;;;;;1999.90;999.90;;;8.20;82.90;;;;;;5032987;28;20030;-90
2023/05/19 01:42:59;;;;;;;1999.90;999.90;;;8.20;82.80;;;;;;5039080;28;20049;-90
2023/05/19 01:45:28;;;;;;;1999.90;999.90;;;8.20;82.70;;;;;;5020048;28;20037;-88
2023/05/19 01:47:57;;;;;;;1999.90;999.90;;;8.10;83.80;;;;;;5021775;28;20042;-88
2023/05/19 01:50:23;;;;;;;1999.90;999.90;;;8.10;83.30;;;;;;5015079;28;20061;-89
2023/05/19 01:52:50;;;;;;;1999.90;999.90;;;8.10;83.80;;;;;;5033367;28;20059;-87
2023/05/19 01:55:15;;;;;;;1999.90;999.90;;;8.20;83.20;;;;;;5031322;28;20403;-88
2023/05/19 01:58:05;;;;;;;1999.90;999.90;;;8.20;83.20;;;;;;5032610;28;20036;-88
2023/05/19 02:00:56;;;;;;;1999.90;999.90;;;8.10;83.70;;;;;;5035082;28;20036;-88
2023/05/19 02:03:43;;;;;;;1999.90;999.90;;;8.10;84.80;;;;;;5030331;28;20032;-89
2023/05/19 02:06:27;;;;;;;1999.90;999.90;;;8.10;84.10;;;;;;5050471;28;20061;-88
2023/05/19 02:09:00;;;;;;;1999.90;999.90;;;8.10;83.80;;;;;;5038587;28;20506;-89
2023/05/19 02:11:28;;;;;;;1999.90;999.90;;;8.10;84.10;;;;;;5033752;28;20677;-88
2023/05/19 02:13:59;;;;;;;1999.90;999.90;;;8.10;83.80;;;;;;5034719;28;20038;-88
2023/05/19 02:16:27;;;;;;;1999.90;999.90;;;8.00;84.40;;;;;;5039296;28;20548;-88
2023/05/19 02:18:55;;;;;;;1999.90;999.90;;;8.10;84.40;;;;;;5035382;28;20029;-90
2023/05/19 02:21:20;;;;;;;1999.90;999.90;;;7.90;84.80;;;;;;5033911;28;20562;-90
2023/05/19 02:23:47;;;;;;;1999.90;999.90;;;8.00;84.70;;;;;;5035042;28;20125;-88
2023/05/19 02:26:12;;;;;;;1999.90;999.90;;;7.90;85.70;;;;;;5032010;28;20042;-89
2023/05/19 02:28:38;;;;;;;1999.90;999.90;;;7.90;85.20;;;;;;5036525;28;20065;-89
2023/05/19 02:31:07;;;;;;;1999.90;999.90;;;7.90;85.70;;;;;;5028620;28;20059;-89
2023/05/19 02:33:33;;;;;;;1999.90;999.90;;;7.90;85.70;;;;;;5037082;28;20585;-91
2023/05/19 02:35:59;;;;;;;1999.90;999.90;;;7.90;85.80;;;;;;5035410;28;20036;-90
2023/05/19 02:38:30;;;;;;;1999.90;999.90;;;7.90;86.00;;;;;;5038467;28;20048;-90
2023/05/19 02:40:56;;;;;;;1999.90;999.90;;;7.90;85.50;;;;;;5035090;28;20046;-87
2023/05/19 02:43:22;;;;;;;1999.90;999.90;;;8.00;85.40;;;;;;5035619;28;20058;-90
2023/05/19 02:45:47;;;;;;;1999.90;999.90;;;8.00;85.10;;;;;;5015109;28;20056;-89
2023/05/19 02:48:13;;;;;;;1999.90;999.90;;;8.00;85.80;;;;;;5033683;28;20068;-89
2023/05/19 02:50:39;;;;;;;1999.90;999.90;;;8.10;85.00;;;;;;5030573;28;20041;-88
2023/05/19 02:53:04;;;;;;;1999.90;999.90;;;8.00;85.30;;;;;;5009696;28;20155;-89
2023/05/19 02:55:30;;;;;;;1999.90;999.90;;;8.00;85.50;;;;;;5034980;28;20033;-90
2023/05/19 02:57:55;;;;;;;1999.90;999.90;;;8.00;85.30;;;;;;5033120;28;20034;-89
2023/05/19 03:00:21;;;;;;;1999.90;999.90;;;8.10;84.90;;;;;;5013906;28;20029;-89
2023/05/19 03:02:47;;;;;;;1999.90;999.90;;;8.10;85.10;;;;;;5038542;28;20445;-88
2023/05/19 03:05:13;;;;;;;1999.90;999.90;;;8.10;85.10;;;;;;5034403;28;20025;-89
2023/05/19 03:07:38;;;;;;;1999.90;999.90;;;8.10;84.90;;;;;;5037884;28;20033;-89
2023/05/19 03:10:07;;;;;;;1999.90;999.90;;;8.10;84.80;;;;;;5032415;28;20079;-91
2023/05/19 03:12:33;;;;;;;1999.90;999.90;;;8.10;85.20;;;;;;5037913;28;20039;-90
2023/05/19 03:14:59;;;;;;;1999.90;999.90;;;8.00;85.40;;;;;;5033261;28;21655;-89
2023/05/19 03:17:25;;;;;;;1999.90;999.90;;;8.00;85.30;;;;;;5027415;28;20029;-89
2023/05/19 03:19:51;;;;;;;1999.90;999.90;;;7.90;85.70;;;;;;5029072;28;20143;-89
2023/05/19 03:22:17;;;;;;;1999.90;999.90;;;7.90;85.80;;;;;;5019407;28;20664;-90
2023/05/19 03:24:43;;;;;;;1999.90;999.90;;;7.90;85.90;;;;;;5032880;28;20124;-89
2023/05/19 03:27:10;;;;;;;1999.90;999.90;;;7.90;85.80;;;;;;5035617;28;20136;-90
2023/05/19 03:29:36;;;;;;;1999.90;999.90;;;7.80;85.80;;;;;;5024237;28;20077;-89
2023/05/19 03:32:02;;;;;;;1999.90;999.90;;;7.90;86.00;;;;;;5034890;28;20390;-90
2023/05/19 03:34:28;;;;;;;1999.90;999.90;;;7.90;86.20;;;;;;5030917;28;20033;-89
2023/05/19 03:36:53;;;;;;;1999.90;999.90;;;7.90;86.30;;;;;;5018087;28;20061;-88
2023/05/19 03:39:19;;;;;;;1999.90;999.90;;;7.90;86.00;;;;;;5014357;28;20035;-88
2023/05/19 03:41:45;;;;;;;1999.90;999.90;;;7.80;86.30;;;;;;5036877;28;20032;-90
2023/05/19 03:44:10;;;;;;;1999.90;999.90;;;7.90;86.40;;;;;;5013382;28;20030;-89
2023/05/19 03:46:36;;;;;;;1999.90;999.90;;;7.90;86.50;;;;;;5035615;28;20044;-89
2023/05/19 03:49:02;;;;;;;1999.90;999.90;;;7.90;86.20;;;;;;5017479;28;21017;-90
2023/05/19 03:51:28;;;;;;;1999.90;999.90;;;7.90;86.30;;;;;;5034569;28;20033;-90
2023/05/19 03:53:54;;;;;;;1999.90;999.90;;;7.90;86.30;;;;;;5031883;28;20092;-88
2023/05/19 03:56:23;;;;;;;1999.90;999.90;;;7.80;86.50;;;;;;5036644;28;20438;-90
2023/05/19 03:58:49;;;;;;;1999.90;999.90;;;7.80;86.60;;;;;;5016942;28;20030;-90
2023/05/19 04:01:15;;;;;;;1999.90;999.90;;;7.80;86.70;;;;;;5018308;28;20032;-89
2023/05/19 04:03:40;;;;;;;1999.90;999.90;;;7.80;86.80;;;;;;5035331;28;20037;-90
2023/05/19 04:06:07;;;;;;;1999.90;999.90;;;7.80;86.60;;;;;;5018748;28;20087;-88
2023/05/19 04:08:32;;;;;;;1999.90;999.90;;;7.80;86.80;;;;;;5029595;28;20064;-90
2023/05/19 04:10:59;;;;;;;1999.90;999.90;;;7.80;87.00;;;;;;5032591;28;20037;-90
2023/05/19 04:13:24;;;;;;;1999.90;999.90;;;7.80;87.20;;;;;;5014508;28;20040;-90
2023/05/19 04:15:51;;;;;;;1999.90;999.90;;;7.90;87.10;;;;;;5027915;28;20052;-89
2023/05/19 04:18:17;;;;;;;1999.90;999.90;;;7.90;87.00;;;;;;5030143;28;20087;-87
2023/05/19 04:20:43;;;;;;;1999.90;999.90;;;7.90;87.20;;;;;;5032643;28;20496;-89
2023/05/19 04:23:09;;;;;;;1999.90;999.90;;;7.90;87.20;;;;;;5027457;28;20045;-90
2023/05/19 04:25:35;;;;;;;1999.90;999.90;;;8.10;86.70;;;;;;5034058;28;20040;-88
2023/05/19 04:28:01;;;;;;;1999.90;999.90;;;8.10;86.20;;;;;;5029841;28;20045;-88
2023/05/19 04:30:28;;;;;;;1999.90;999.90;;;8.20;86.30;;;;;;5033261;28;20029;-90
2023/05/19 04:32:53;;;;;;;1999.90;999.90;;;8.20;85.50;;;;;;5017974;28;20032;-87
2023/05/19 04:35:19;;;;;;;1999.90;999.90;;;8.30;85.40;;;;;;5032936;28;20426;-87
2023/05/19 04:37:46;;;;;;;1999.90;999.90;;;8.20;85.40;;;;;;5026025;28;20116;-89
2023/05/19 04:40:12;;;;;;;1999.90;999.90;;;8.40;85.30;;;;;;5028239;28;20463;-87
2023/05/19 04:42:41;;;;;;;1999.90;999.90;;;8.40;84.90;;;;;;5030206;28;20030;-88
2023/05/19 04:45:08;;;;;;;1999.90;999.90;;;8.40;84.60;;;;;;5032482;28;20044;-88
2023/05/19 04:47:37;;;;;;;1999.90;999.90;;;8.40;84.60;;;;;;5036684;28;20540;-88
2023/05/19 04:50:09;;;;;;;1999.90;999.90;;;8.40;84.20;;;;;;5033758;28;20037;-88
2023/05/19 04:52:35;;;;;;;1999.90;999.90;;;8.50;84.80;;;;;;5034693;28;20021;-89
2023/05/19 04:55:00;;;;;;;1999.90;999.90;;;8.60;84.90;;;;;;5029257;28;20028;-87
2023/05/19 04:57:26;;;;;;;1999.90;999.90;;;8.70;84.70;;;;;;5031333;28;20025;-89
2023/05/19 04:59:55;;;;;;;1999.90;999.90;;;8.80;83.50;;;;;;5036542;28;20670;-89
2023/05/19 05:02:20;;;;;;;1999.90;999.90;;;8.90;83.30;;;;;;5037879;28;20087;-89
2023/05/19 05:04:46;;;;;;;1999.90;999.90;;;9.00;82.90;;;;;;5027896;28;20049;-89
2023/05/19 05:07:12;;;;;;;1999.90;999.90;;;9.00;82.30;;;;;;5035559;28;20121;-89
2023/05/19 05:09:38;;;;;;;1999.90;999.90;;;8.90;82.90;;;;;;5036846;28;20120;-88
2023/05/19 05:12:06;;;;;;;1999.90;999.90;;;9.10;82.50;;;;;;5031394;28;20038;-89
2023/05/19 05:14:32;;;;;;;1999.90;999.90;;;9.10;82.00;;;;;;5037850;28;20103;-87
2023/05/19 05:16:58;;;;;;;1999.90;999.90;;;9.20;81.90;;;;;;5031393;28;20033;-88
2023/05/19 05:19:24;;;;;;;1999.90;999.90;;;9.10;82.10;;;;;;5033433;28;20549;-85
2023/05/19 05:21:50;;;;;;;1999.90;999.90;;;9.20;82.00;;;;;;5034736;28;20535;-88
2023/05/19 05:24:16;;;;;;;1999.90;999.90;;;9.40;81.00;;;;;;5036109;28;20111;-86
2023/05/19 05:26:42;;;;;;;1999.90;999.90;;;9.40;80.80;;;;;;5028512;28;20127;-85
2023/05/19 05:29:09;;;;;;;1999.90;999.90;;;9.50;81.40;;;;;;5026771;28;20060;-87
2023/05/19 05:31:40;;;;;;;1999.90;999.90;;;9.60;79.70;;;;;;5030339;28;20491;-88
2023/05/19 05:34:05;;;;;;;1999.90;999.90;;;9.70;79.30;;;;;;5032597;28;20101;-83
2023/05/19 05:36:33;;;;;;;1999.90;999.90;;;9.80;80.00;;;;;;5032730;28;20113;-86
2023/05/19 05:39:01;;;;;;;1999.90;999.90;;;9.80;79.10;;;;;;5027621;28;20562;-88
2023/05/19 05:41:28;;;;;;;1999.90;999.90;;;9.90;79.30;;;;;;5029850;28;20540;-87
2023/05/19 05:43:55;;;;;;;1999.90;999.90;;;9.70;79.60;;;;;;5028877;28;20426;-87
2023/05/19 05:46:21;;;;;;;1999.90;999.90;;;9.60;80.40;;;;;;5033401;28;20577;-87
2023/05/19 05:48:47;;;;;;;1999.90;999.90;;;9.60;80.30;;;;;;5034855;28;20057;-88
2023/05/19 05:51:13;;;;;;;1999.90;999.90;;;9.80;80.10;;;;;;5036367;28;20452;-85
2023/05/19 05:53:46;;;;;;;1999.90;999.90;;;9.80;79.60;;;;;;5036943;28;20083;-86
2023/05/19 05:56:13;;;;;;;1999.90;999.90;;;9.90;79.80;;;;;;5032558;28;20033;-89
2023/05/19 05:58:39;;;;;;;1999.90;999.90;;;9.80;80.00;;;;;;5028701;28;20040;-86
2023/05/19 06:01:09;;;;;;;1999.90;999.90;;;9.90;79.50;;;;;;5020140;28;20033;-85
2023/05/19 06:03:36;;;;;;;1999.90;999.90;;;10.10;79.30;;;;;;5030134;28;20029;-83
2023/05/19 06:06:03;;;;;;;1999.90;999.90;;;10.20;78.60;;;;;;5021522;28;20124;-85
2023/05/19 06:08:28;;;;;;;1999.90;999.90;;;10.30;78.30;;;;;;5028611;28;20036;-83
2023/05/19 06:10:54;;;;;;;1999.90;999.90;;;10.40;77.70;;;;;;5014752;28;20038;-84
2023/05/19 06:13:22;;;;;;;1999.90;999.90;;;10.40;78.20;;;;;;5031222;28;20042;-83
2023/05/19 06:15:50;;;;;;;1999.90;999.90;;;10.50;78.00;;;;;;5030895;28;20448;-84
2023/05/19 06:18:16;;;;;;;1999.90;999.90;;;10.70;77.20;;;;;;5029159;28;20033;-86
2023/05/19 06:20:42;;;;;;;1999.90;999.90;;;10.80;76.80;;;;;;5037548;28;20032;-84
2023/05/19 06:23:08;;;;;;;1999.90;999.90;;;10.80;76.10;;;;;;5028921;28;20092;-84
2023/05/19 06:25:33;;;;;;;1999.90;999.90;;;10.80;76.60;;;;;;5014471;28;20087;-85
2023/05/19 06:27:59;;;;;;;1999.90;999.90;;;11.10;76.40;;;;;;5028641;28;20118;-85
2023/05/19 06:30:25;;;;;;;1999.90;999.90;;;11.10;75.20;;;;;;5034383;28;20037;-88
2023/05/19 06:32:51;;;;;;;1999.90;999.90;;;11.00;75.10;;;;;;5028270;28;20025;-85
2023/05/19 06:35:17;;;;;;;1999.90;999.90;;;11.20;76.70;;;;;;5031676;28;20025;-85
2023/05/19 06:37:43;;;;;;;1999.90;999.90;;;11.10;75.10;;;;;;5027661;28;20455;-83
2023/05/19 06:40:09;;;;;;;1999.90;999.90;;;11.30;75.30;;;;;;5029012;28;20042;-84
2023/05/19 06:42:35;;;;;;;1999.90;999.90;;;11.60;74.80;;;;;;5033935;28;20028;-84
2023/05/19 06:45:02;;;;;;;1999.90;999.90;;;12.00;73.70;;;;;;5036904;28;21321;-82
2023/05/19 06:47:28;;;;;;;1999.90;999.90;;;12.40;72.90;;;;;;5027121;28;20040;-87
2023/05/19 06:49:54;;;;;;;1999.90;999.90;;;12.10;71.80;;;;;;5033891;28;20128;-82
2023/05/19 06:52:20;;;;;;;1999.90;999.90;;;12.00;71.60;;;;;;5030324;28;20029;-87
2023/05/19 06:54:47;;;;;;;1999.90;999.90;;;12.40;72.00;;;;;;5032592;28;20025;-83
2023/05/19 06:57:13;;;;;;;1999.90;999.90;;;12.60;72.00;;;;;;5031496;28;20033;-81
2023/05/19 06:59:42;;;;;;;1999.90;999.90;;;12.80;71.50;;;;;;5034829;28;20040;-83
2023/05/19 07:02:08;;;;;;;1999.90;999.90;;;12.90;71.00;;;;;;5030553;28;20912;-85
2023/05/19 07:04:35;;;;;;;1999.90;999.90;;;12.80;70.20;;;;;;5011616;28;20041;-84
2023/05/19 07:07:01;;;;;;;1999.90;999.90;;;12.70;69.10;;;;;;5024872;28;20076;-83
2023/05/19 07:09:26;;;;;;;1999.90;999.90;;;13.00;70.40;;;;;;5032780;28;20495;-84
2023/05/19 07:11:52;;;;;;;1999.90;999.90;;;13.50;69.20;;;;;;5032781;28;20044;-84
2023/05/19 07:14:19;;;;;;;1999.90;999.90;;;13.80;66.60;;;;;;5029129;28;20075;-85
2023/05/19 07:16:45;;;;;;;1999.90;999.90;;;13.40;67.20;;;;;;5030674;28;20598;-83
2023/05/19 07:19:11;;;;;;;1999.90;999.90;;;13.10;67.90;;;;;;5037208;28;20136;-84
2023/05/19 07:21:36;;;;;;;1999.90;999.90;;;13.30;68.20;;;;;;5030912;28;20410;-86
2023/05/19 07:24:02;;;;;;;1999.90;999.90;;;13.70;67.50;;;;;;5017845;28;20422;-84
2023/05/19 07:26:28;;;;;;;1999.90;999.90;;;13.90;66.40;;;;;;5033385;28;20097;-83
2023/05/19 07:28:54;;;;;;;1999.90;999.90;;;13.50;67.90;;;;;;5032243;28;20056;-83
2023/05/19 07:31:19;;;;;;;1999.90;999.90;;;13.60;66.60;;;;;;5030032;28;20033;-82
2023/05/19 07:33:45;;;;;;;1999.90;999.90;;;13.90;66.60;;;;;;5031345;28;20402;-85
2023/05/19 07:36:11;;;;;;;1999.90;999.90;;;13.90;67.00;;;;;;5033507;28;20044;-84
2023/05/19 07:38:38;;;;;;;1999.90;999.90;;;13.80;65.90;;;;;;5032691;28;20034;-87
2023/05/19 07:41:04;;;;;;;1999.90;999.90;;;14.10;64.90;;;;;;5028735;28;20030;-86
2023/05/19 07:43:29;;;;;;;1999.90;999.90;;;14.10;64.90;;;;;;5027083;28;20507;-88
2023/05/19 07:45:56;;;;;;;1999.90;999.90;;;14.50;66.00;;;;;;5033683;28;20071;-85
2023/05/19 07:48:24;;;;;;;1999.90;999.90;;;14.30;64.30;;;;;;5039337;28;20478;-87
2023/05/19 07:50:51;;;;;;;1999.90;999.90;;;14.30;63.70;;;;;;5034712;28;20406;-86
2023/05/19 07:53:16;;;;;;;1999.90;999.90;;;14.40;65.10;;;;;;5035928;28;20025;-82
2023/05/19 07:55:42;;;;;;;1999.90;999.90;;;14.70;65.30;;;;;;5035728;28;20040;-88
2023/05/19 07:58:11;;;;;;;1999.90;999.90;;;15.40;64.30;;;;;;5032562;28;20064;-91
2023/05/19 08:00:36;;;;;;;1999.90;999.90;;;15.10;60.70;;;;;;5016394;28;20025;-84
2023/05/19 08:03:02;;;;;;;1999.90;999.90;;;14.80;62.00;;;;;;5036199;28;20041;-84
2023/05/19 08:05:28;;;;;;;1999.90;999.90;;;14.60;63.80;;;;;;5037437;28;20061;-85
2023/05/19 08:07:56;;;;;;;1999.90;999.90;;;14.20;62.80;;;;;;5032314;28;20115;-87
2023/05/19 08:10:21;;;;;;;1999.90;999.90;;;14.50;62.80;;;;;;5035159;28;20025;-88
2023/05/19 08:12:47;;;;;;;1999.90;999.90;;;14.70;63.70;;;;;;5031609;28;20029;-88
2023/05/19 08:15:13;;;;;;;1999.90;999.90;;;14.40;63.40;;;;;;5028612;28;20030;-88
2023/05/19 08:17:39;;;;;;;1999.90;999.90;;;14.40;62.30;;;;;;5041703;28;20037;-88
2023/05/19 08:20:07;;;;;;;1999.90;999.90;;;14.30;63.90;;;;;;5036350;28;20036;-87
2023/05/19 08:22:33;;;;;;;1999.90;999.90;;;14.40;64.20;;;;;;5038561;28;20104;-88
2023/05/19 08:24:58;;;;;;;1999.90;999.90;;;14.50;64.20;;;;;;5039883;28;20451;-89
2023/05/19 08:27:24;;;;;;;1999.90;999.90;;;14.30;63.90;;;;;;5018170;28;20038;-87
2023/05/19 08:29:50;;;;;;;1999.90;999.90;;;14.40;64.70;;;;;;5035851;28;20037;-87
2023/05/19 08:32:16;;;;;;;1999.90;999.90;;;14.50;63.30;;;;;;5036338;28;20063;-87
2023/05/19 08:34:42;;;;;;;1999.90;999.90;;;14.90;63.30;;;;;;5037563;28;20030;-87
2023/05/19 08:37:07;;;;;;;1999.90;999.90;;;15.10;61.80;;;;;;5037424;28;20082;-88
2023/05/19 08:39:35;;;;;;;1999.90;999.90;;;15.50;64.00;;;;;;5036017;28;20040;-88
2023/05/19 08:42:01;;;;;;;1999.90;999.90;;;15.40;60.80;;;;;;5037171;28;20063;-87
2023/05/19 08:44:27;;;;;;;1999.90;999.90;;;15.40;60.80;;;;;;5014464;28;20038;-88
2023/05/19 08:46:54;;;;;;;1999.90;999.90;;;15.30;60.80;;;;;;5031539;28;20034;-88
2023/05/19 08:49:29;;;;;;;1999.90;999.90;;;15.70;61.80;;;;;;5034736;28;20030;-88
2023/05/19 08:52:27;;;;;;;1999.90;999.90;;;15.90;60.90;;;;;;5035909;28;20404;-88
2023/05/19 08:55:01;;;;;;;1999.90;999.90;;;16.40;58.20;;;;;;5008739;28;20060;-87
2023/05/19 08:57:27;;;;;;;1999.90;999.90;;;16.60;59.40;;;;;;5029973;28;20048;-88
2023/05/19 08:59:54;;;;;;;1999.90;999.90;;;17.10;58.20;;;;;;5034592;28;20037;-88
2023/05/19 09:02:21;;;;;;;1999.90;999.90;;;17.20;56.10;;;;;;5036399;28;20037;-88
2023/05/19 09:04:47;;;;;;;1999.90;999.90;;;16.40;55.80;;;;;;5014772;28;20042;-88
2023/05/19 09:07:17;;;;;;;1999.90;999.90;;;15.60;58.70;;;;;;5015227;28;20033;-88
2023/05/19 09:09:43;;;;;;;1999.90;999.90;;;15.50;61.10;;;;;;5030175;28;20069;-88
2023/05/19 09:12:10;;;;;;;1999.90;999.90;;;15.70;61.70;;;;;;5029972;28;20618;-88
2023/05/19 09:14:37;;;;;;;1999.90;999.90;;;15.20;61.50;;;;;;5035419;28;20110;-88
2023/05/19 09:17:03;;;;;;;1999.90;999.90;;;15.50;61.40;;;;;;5034051;28;20072;-88
2023/05/19 09:19:30;;;;;;;1999.90;999.90;;;15.80;62.40;;;;;;5035234;28;20033;-87
2023/05/19 09:22:00;;;;;;;1999.90;999.90;;;16.40;58.80;;;;;;5033101;28;20112;-87
2023/05/19 09:24:27;;;;;;;1999.90;999.90;;;16.50;59.20;;;;;;5030480;28;20222;-89
2023/05/19 09:26:56;;;;;;;1999.90;999.90;;;16.30;56.70;;;;;;5034431;28;20037;-87
2023/05/19 09:29:22;;;;;;;1999.90;999.90;;;16.20;60.00;;;;;;5036636;28;20055;-88
2023/05/19 09:31:53;;;;;;;1999.90;999.90;;;15.80;60.30;;;;;;5029952;28;20124;-87
2023/05/19 09:34:20;;;;;;;;;;;16.00;61.90;;;;;;5035692;28;20028;-87
2023/05/19 09:36:49;;;;;;;1999.90;999.90;;;15.40;60.10;;;;;;5035478;28;19920;-87
2023/05/19 09:39:15;;;;;;;1999.90;999.90;;;15.30;61.90;;;;;;5012988;28;20041;-88
2023/05/19 09:41:41;;;;;;;1999.90;999.90;;;15.40;59.30;;;;;;5016148;28;20057;-89
2023/05/19 09:44:28;;;;;;;1999.90;999.90;;;16.10;59.60;;;;;;5031658;28;20080;-89
2023/05/19 09:46:54;;;;;;;1999.90;999.90;;;16.00;57.90;;;;;;5029955;28;20123;-88
2023/05/19 09:49:25;;;;;;;1999.90;999.90;;;16.30;59.80;;;;;;5033809;28;20116;-86
2023/05/19 09:51:54;;;;;;;1999.90;999.90;;;16.40;58.50;;;;;;5026517;28;20065;-88
2023/05/19 09:54:27;;;;;;;1999.90;999.90;;;16.20;59.30;;;;;;5030757;28;20021;-88
2023/05/19 09:57:04;;;;;;;1999.90;999.90;;;16.00;59.00;;;;;;5014044;28;20029;-88
2023/05/19 09:59:30;;;;;;;1999.90;999.90;;;16.10;57.50;;;;;;5028903;28;20037;-86
2023/05/19 10:01:59;;;;;;;1999.90;999.90;;;15.80;58.00;;;;;;5030289;28;20029;-88
2023/05/19 10:04:27;;;;;;;1999.90;999.90;;;15.50;60.10;;;;;;5036829;28;20041;-88
2023/05/19 10:06:54;;;;;;;1999.90;999.90;;;15.40;60.00;;;;;;5033009;28;20037;-87
2023/05/19 10:09:22;;;;;;;1999.90;999.90;;;14.80;61.60;;;;;;5032743;28;20491;-88
2023/05/19 10:11:52;;;;;;;1999.90;999.90;;;14.80;61.60;;;;;;5031779;28;20083;-86
2023/05/19 10:14:24;;;;;;;1999.90;999.90;;;14.20;62.90;;;;;;5033215;28;20018;-89
2023/05/19 10:16:51;;;;;;;1999.90;999.90;;;14.40;62.60;;;;;;5031826;28;20030;-83
2023/05/19 10:19:22;;;;;;;1999.90;999.90;;;14.30;62.60;;;;;;5032352;28;20113;-85
2023/05/19 10:21:48;;;;;;;1999.90;999.90;;;14.60;62.60;;;;;;5030344;28;20036;-86
2023/05/19 10:24:16;;;;;;;1999.90;999.90;;;14.80;62.70;;;;;;5033609;28;20025;-86
2023/05/19 10:27:08;;;;;;;1999.90;999.90;;;15.10;62.60;;;;;;5028725;28;20045;-86
2023/05/19 10:29:39;;;;;;;1999.90;999.90;;;15.30;61.20;;;;;;5029668;28;20042;-84
2023/05/19 10:32:11;;;;;;;;;;;15.20;60.50;;;;;;5029904;28;20395;-86
2023/05/19 10:35:06;;;;;;;1999.90;999.90;;;15.10;60.10;;;;;;5035203;28;20314;-89
2023/05/19 10:38:09;;;;;;;1999.90;999.90;;;15.00;61.60;;;;;;5031662;28;20060;-83
2023/05/19 10:40:52;;;;;;;1999.90;999.90;;;14.60;63.00;;;;;;5033630;28;20025;-83
2023/05/19 10:43:37;;;;;;;1999.90;999.90;;;14.20;64.10;;;;;;5029873;28;20025;-84
2023/05/19 10:46:05;;;;;;;1999.90;999.90;;;14.00;65.40;;;;;;5029607;28;20028;-86
2023/05/19 10:48:37;;;;;;;1999.90;999.90;;;13.50;65.40;;;;;;5032883;28;20029;-86
2023/05/19 10:51:04;;;;;;;1999.90;999.90;;;13.40;67.30;;;;;;5034135;28;20021;-87
2023/05/19 10:53:31;;;;;;;1999.90;999.90;;;13.30;66.50;;;;;;5032467;28;20157;-81
2023/05/19 10:56:03;;;;;;;1999.90;999.90;;;13.30;66.30;;;;;;5031662;28;20080;-87
2023/05/19 10:58:39;;;;;;;1999.90;999.90;;;13.40;66.10;;;;;;5032329;28;20065;-87
2023/05/19 11:01:18;;;;;;;1999.90;999.90;;;13.60;65.80;;;;;;5032632;28;20025;-85
2023/05/19 11:03:47;;;;;;;1999.90;999.90;;;13.80;65.20;;;;;;5029342;28;20064;-84
2023/05/19 11:06:30;;;;;;;1999.90;999.90;;;13.80;65.40;;;;;;5029599;28;20048;-90
2023/05/19 11:09:09;;;;;;;1999.90;999.90;;;13.90;65.20;;;;;;5031065;28;20483;-89
2023/05/19 11:11:51;;;;;;;1999.90;999.90;;;13.80;66.00;;;;;;5031313;28;20045;-91
2023/05/19 11:14:21;;;;;;;1999.90;999.90;;;13.70;66.50;;;;;;5028624;28;20075;-89
2023/05/19 11:16:49;;;;;;;1999.90;999.90;;;13.60;66.30;;;;;;5030243;28;20029;-87
2023/05/19 11:19:34;;;;;;;1999.90;999.90;;;13.60;66.80;;;;;;5026488;28;20048;-87
2023/05/19 11:22:11;;;;;;;1999.90;999.90;;;13.60;64.80;;;;;;5028089;28;20029;-87
2023/05/19 11:24:43;;;;;;;1999.90;999.90;;;13.50;66.60;;;;;;5028233;28;20068;-86
2023/05/19 11:27:27;;;;;;;1999.90;999.90;;;13.80;65.50;;;;;;5031794;28;20116;-84
2023/05/19 11:29:55;;;;;;;1999.90;999.90;;;14.20;66.80;;;;;;5021599;28;20124;-86
2023/05/19 11:32:41;;;;;;;1999.90;999.90;;;14.70;62.90;;;;;;5032376;28;20026;-90
2023/05/19 11:35:08;;;;;;;1999.90;999.90;;;14.50;62.40;;;;;;5024137;28;20044;-88
2023/05/19 11:37:36;;;;;;;1999.90;999.90;;;14.10;64.80;;;;;;5021334;28;20471;-90
2023/05/19 11:40:06;;;;;;;1999.90;999.90;;;14.40;64.20;;;;;;5026596;28;20045;-87
2023/05/19 11:42:50;;;;;;;1999.90;999.90;;;14.00;64.20;;;;;;5029447;28;20037;-84
2023/05/19 11:45:27;;;;;;;1999.90;999.90;;;14.10;64.30;;;;;;5030536;28;20036;-86
2023/05/19 11:47:55;;;;;;;1999.90;999.90;;;14.20;64.30;;;;;;5026022;28;20036;-84
2023/05/19 11:50:23;;;;;;;1999.90;999.90;;;14.20;64.50;;;;;;5033749;28;20029;-81
2023/05/19 11:52:53;;;;;;;1999.90;999.90;;;14.10;64.90;;;;;;5028408;28;20040;-87
2023/05/19 11:55:23;;;;;;;1999.90;999.90;;;13.90;65.50;;;;;;5038401;28;20086;-85
2023/05/19 11:58:02;;;;;;;1999.90;999.90;;;13.70;65.10;;;;;;5037392;28;20035;-88
2023/05/19 12:00:38;;;;;;;1999.90;999.90;;;13.70;65.60;;;;;;5026203;28;20034;-87
2023/05/19 12:03:04;;;;;;;1999.90;999.90;;;13.50;65.10;;;;;;5035737;28;20099;-85
2023/05/19 12:05:30;;;;;;;1999.90;999.90;;;13.20;66.10;;;;;;5043115;28;20040;-86
2023/05/19 12:07:56;;;;;;;1999.90;999.90;;;13.30;67.20;;;;;;5036294;28;20034;-85
2023/05/19 12:10:26;;;;;;;1999.90;999.90;;;13.50;67.90;;;;;;5030950;28;20364;-87